createdAt,value
2019-01-19T00:00:07.158Z,-1.15
2019-01-19T00:02:53.840Z,-1.18
2019-01-19T00:06:12.485Z,-1.32
2019-01-19T00:09:13.816Z,-1.31
2019-01-19T00:12:39.304Z,-1.40
2019-01-19T00:15:31.827Z,-1.47
2019-01-19T00:18:42.188Z,-1.50
2019-01-19T00:22:04.556Z,-1.52
2019-01-19T00:25:15.964Z,-1.58
2019-01-19T00:28:00.849Z,-1.72
2019-01-19T00:31:10.780Z,-1.72
2019-01-19T00:34:34.502Z,-1.73
2019-01-19T00:37:35.220Z,-1.80
2019-01-19T00:41:08.936Z,-1.84
2019-01-19T00:44:15.912Z,-1.83
2019-01-19T00:47:18.948Z,-1.84
2019-01-19T00:50:39.712Z,-1.89
2019-01-19T00:53:31.814Z,-1.97
2019-01-19T00:57:01.258Z,-1.99
2019-01-19T00:59:41.127Z,-1.95
2019-01-19T01:03:16.672Z,-2.04
2019-01-19T01:06:51.352Z,-2.04
2019-01-19T01:10:23.379Z,-2.09
2019-01-19T01:13:45.470Z,-2.16
2019-01-19T01:17:22.743Z,-2.20
2019-01-19T01:20:54.512Z,-2.17
2019-01-19T01:24:30.930Z,-2.20
2019-01-19T01:27:46.724Z,-2.29
2019-01-19T01:31:18.447Z,-2.30
2019-01-19T01:34:44.344Z,-2.27
2019-01-19T01:38:03.530Z,-2.24
2019-01-19T01:41:42.192Z,-2.34
2019-01-19T01:44:51.614Z,-2.36
2019-01-19T01:48:26.410Z,-2.38
2019-01-19T01:51:41.269Z,-2.36
2019-01-19T01:55:19.947Z,-2.15
2019-01-19T01:58:12.574Z,-1.89
2019-01-19T02:01:05.925Z,-1.75
2019-01-19T02:04:22.361Z,-1.72
2019-01-19T02:07:18.786Z,-1.72
2019-01-19T02:10:40.735Z,-1.69
2019-01-19T02:13:52.235Z,-1.71
2019-01-19T02:17:33.293Z,-1.76
2019-01-19T02:20:57.267Z,-1.68
2019-01-19T02:24:12.812Z,-1.60
2019-01-19T02:27:40.620Z,-1.46
2019-01-19T02:30:47.540Z,-1.33
2019-01-19T02:34:04.139Z,-1.32
2019-01-19T02:37:32.161Z,-1.36
2019-01-19T02:40:27.989Z,-1.43
2019-01-19T02:44:04.595Z,-1.49
2019-01-19T02:47:53.171Z,-1.50
2019-01-19T02:51:05.215Z,-1.56
2019-01-19T02:54:18.238Z,-1.69
2019-01-19T02:58:02.519Z,-1.73
2019-01-19T03:01:11.125Z,-1.84
2019-01-19T03:04:24.008Z,-1.86
2019-01-19T03:07:42.125Z,-1.94
2019-01-19T03:11:21.002Z,-2.01
2019-01-19T03:14:58.023Z,-2.06
2019-01-19T03:18:20.187Z,-2.02
2019-01-19T03:21:20.766Z,-1.86
2019-01-19T03:24:34.257Z,-1.76
2019-01-19T03:27:33.867Z,-1.67
2019-01-19T03:30:59.661Z,-1.60
2019-01-19T03:34:08.921Z,-1.54
2019-01-19T03:37:54.652Z,-1.42
2019-01-19T03:41:26.728Z,-1.30
2019-01-19T03:44:39.563Z,-1.23
2019-01-19T03:48:07.333Z,-1.15
2019-01-19T03:51:27.425Z,-1.08
2019-01-19T03:54:52.322Z,-1.02
2019-01-19T03:58:08.981Z,-0.98
2019-01-19T04:01:11.751Z,-0.94
2019-01-19T04:04:32.036Z,-0.92
2019-01-19T04:07:28.208Z,-0.88
2019-01-19T04:10:39.679Z,-0.83
2019-01-19T04:13:52.252Z,-0.88
2019-01-19T04:17:04.103Z,-0.90
2019-01-19T04:19:53.140Z,-0.82
2019-01-19T04:22:44.055Z,-0.83
2019-01-19T04:26:09.266Z,-0.80
2019-01-19T04:28:42.283Z,-0.84
2019-01-19T04:31:13.603Z,-0.87
2019-01-19T04:33:45.039Z,-0.81
2019-01-19T04:36:21.764Z,-0.80
2019-01-19T04:38:51.324Z,-0.80
2019-01-19T04:41:27.488Z,-0.80
2019-01-19T04:43:58.208Z,-0.84
2019-01-19T04:46:28.948Z,-0.84
2019-01-19T04:48:59.799Z,-0.82
2019-01-19T04:51:30.562Z,-0.85
2019-01-19T04:54:01.382Z,-0.91
2019-01-19T04:56:32.106Z,-0.97
2019-01-19T04:59:02.864Z,-1.03
2019-01-19T05:01:33.686Z,-1.15
2019-01-19T05:04:04.458Z,-1.28
2019-01-19T05:06:35.322Z,-1.39
2019-01-19T05:09:09.196Z,-1.46
2019-01-19T05:11:40.032Z,-1.60
2019-01-19T05:14:10.820Z,-1.77
2019-01-19T05:16:41.590Z,-1.92
2019-01-19T05:19:12.402Z,-2.05
2019-01-19T05:21:43.184Z,-2.10
2019-01-19T05:24:13.944Z,-2.17
2019-01-19T05:26:44.810Z,-2.24
2019-01-19T05:29:15.570Z,-2.26
2019-01-19T05:31:46.362Z,-2.22
2019-01-19T05:34:17.155Z,-2.23
2019-01-19T05:36:47.920Z,-2.23
2019-01-19T05:39:18.770Z,-2.23
2019-01-19T05:41:49.526Z,-2.21
2019-01-19T05:44:20.378Z,-2.12
2019-01-19T05:46:51.139Z,-2.03
2019-01-19T05:49:21.974Z,-1.96
2019-01-19T05:51:52.751Z,-1.88
2019-01-19T05:54:23.574Z,-1.85
2019-01-19T05:56:54.338Z,-1.88
2019-01-19T05:59:25.078Z,-1.93
2019-01-19T06:01:55.947Z,-2.09
2019-01-19T06:04:26.719Z,-2.24
2019-01-19T06:06:57.503Z,-2.38
2019-01-19T06:09:28.303Z,-2.52
2019-01-19T06:11:59.098Z,-2.59
2019-01-19T06:14:29.922Z,-2.66
2019-01-19T06:17:01.128Z,-2.74
2019-01-19T06:19:32.582Z,-2.81
2019-01-19T06:22:03.631Z,-2.84
2019-01-19T06:24:34.373Z,-2.90
2019-01-19T06:27:05.156Z,-2.94
2019-01-19T06:29:35.951Z,-3.03
2019-01-19T06:32:06.794Z,-3.09
2019-01-19T06:34:37.600Z,-3.17
2019-01-19T06:37:08.371Z,-3.20
2019-01-19T06:39:39.172Z,-3.20
2019-01-19T06:42:10.018Z,-3.22
2019-01-19T06:44:40.866Z,-3.27
2019-01-19T06:47:11.618Z,-3.30
2019-01-19T06:49:42.437Z,-3.32
2019-01-19T06:52:13.234Z,-3.32
2019-01-19T06:54:44.151Z,-3.34
2019-01-19T06:57:14.985Z,-3.34
2019-01-19T06:59:45.801Z,-3.32
2019-01-19T07:02:16.570Z,-3.35
2019-01-19T07:04:47.410Z,-3.38
2019-01-19T07:07:18.165Z,-3.37
2019-01-19T07:09:49.065Z,-3.32
2019-01-19T07:12:19.908Z,-3.30
2019-01-19T07:14:50.794Z,-3.30
2019-01-19T07:17:21.659Z,-3.26
2019-01-19T07:19:52.469Z,-3.25
2019-01-19T07:22:23.275Z,-3.22
2019-01-19T07:24:54.132Z,-3.17
2019-01-19T07:27:24.906Z,-3.12
2019-01-19T07:29:55.732Z,-3.06
2019-01-19T07:32:32.999Z,-3.00
2019-01-19T07:35:03.801Z,-2.93
2019-01-19T07:37:34.615Z,-2.83
2019-01-19T07:40:06.315Z,-2.79
2019-01-19T07:42:38.324Z,-2.72
2019-01-19T07:45:10.321Z,-2.64
2019-01-19T07:47:42.400Z,-2.54
2019-01-19T07:50:16.711Z,-2.42
2019-01-19T07:52:47.669Z,-2.34
2019-01-19T07:55:18.889Z,-2.26
2019-01-19T07:57:49.798Z,-2.14
2019-01-19T08:00:30.101Z,-2.03
2019-01-19T08:03:18.725Z,-1.94
2019-01-19T08:05:49.562Z,-1.88
2019-01-19T08:08:20.442Z,-1.81
2019-01-19T08:10:51.265Z,-1.76
2019-01-19T08:13:22.443Z,-1.68
2019-01-19T08:15:53.259Z,-1.59
2019-01-19T08:18:24.064Z,-1.48
2019-01-19T08:20:54.882Z,-1.39
2019-01-19T08:23:26.258Z,-1.29
2019-01-19T08:25:57.080Z,-1.17
2019-01-19T08:28:27.901Z,-1.09
2019-01-19T08:30:58.740Z,-1.01
2019-01-19T08:33:29.620Z,-1.00
2019-01-19T08:36:00.572Z,-0.98
2019-01-19T08:38:31.439Z,-0.95
2019-01-19T08:41:02.308Z,-1.01
2019-01-19T08:43:41.508Z,-1.00
2019-01-19T08:46:12.386Z,-0.96
2019-01-19T08:48:43.296Z,-0.90
2019-01-19T08:51:14.317Z,-0.89
2019-01-19T08:53:45.266Z,-0.85
2019-01-19T08:56:16.078Z,-0.76
2019-01-19T08:58:46.996Z,-0.74
2019-01-19T09:01:17.812Z,-0.77
2019-01-19T09:03:48.919Z,-0.78
2019-01-19T09:06:19.808Z,-0.72
2019-01-19T09:08:50.857Z,-0.70
2019-01-19T09:11:21.912Z,-0.69
2019-01-19T09:13:52.842Z,-0.64
2019-01-19T09:16:24.544Z,-0.66
2019-01-19T09:18:55.916Z,-0.61
2019-01-19T09:21:26.844Z,-0.50
2019-01-19T09:24:02.696Z,-0.46
2019-01-19T09:26:33.738Z,-0.41
2019-01-19T09:29:04.634Z,-0.35
2019-01-19T09:31:35.548Z,-0.31
2019-01-19T09:34:07.373Z,-0.29
2019-01-19T09:36:38.731Z,-0.17
2019-01-19T09:39:13.016Z,-0.05
2019-01-19T09:41:43.882Z,0.03
2019-01-19T09:44:14.502Z,0.11
2019-01-19T09:46:45.454Z,0.21
2019-01-19T09:49:16.570Z,0.28
2019-01-19T09:51:47.482Z,0.29
2019-01-19T09:54:18.596Z,0.35
2019-01-19T09:56:49.481Z,0.43
2019-01-19T09:59:20.342Z,0.51
2019-01-19T10:01:51.219Z,0.60
2019-01-19T10:04:22.116Z,0.71
2019-01-19T10:06:53.070Z,0.82
2019-01-19T10:09:25.570Z,0.87
2019-01-19T10:11:56.493Z,0.93
2019-01-19T10:14:27.347Z,1.00
2019-01-19T10:16:58.262Z,1.11
2019-01-19T10:19:29.079Z,1.25
2019-01-19T10:21:59.992Z,1.33
2019-01-19T10:24:31.044Z,1.36
2019-01-19T10:27:01.907Z,1.35
2019-01-19T10:29:32.852Z,1.33
2019-01-19T10:32:03.788Z,1.34
2019-01-19T10:34:34.620Z,1.38
2019-01-19T10:37:05.541Z,1.42
2019-01-19T10:39:36.387Z,1.46
2019-01-19T10:42:07.240Z,1.51
2019-01-19T10:44:38.184Z,1.47
2019-01-19T10:47:09.044Z,1.42
2019-01-19T10:49:39.899Z,1.38
2019-01-19T10:52:10.727Z,1.43
2019-01-19T10:54:41.576Z,1.49
2019-01-19T10:57:12.566Z,1.61
2019-01-19T10:59:43.381Z,1.67
2019-01-19T11:02:14.179Z,1.72
2019-01-19T11:04:45.003Z,1.77
2019-01-19T11:07:15.901Z,1.79
2019-01-19T11:09:46.829Z,1.79
2019-01-19T11:12:17.591Z,1.83
2019-01-19T11:14:48.508Z,1.89
2019-01-19T11:17:19.344Z,1.96
2019-01-19T11:19:50.235Z,2.02
2019-01-19T11:22:21.092Z,2.01
2019-01-19T11:24:51.921Z,1.98
2019-01-19T11:27:22.789Z,2.02
2019-01-19T11:29:53.666Z,2.08
2019-01-19T11:32:24.555Z,2.14
2019-01-19T11:34:55.491Z,2.16
2019-01-19T11:37:26.291Z,2.15
2019-01-19T11:39:57.159Z,2.16
2019-01-19T11:42:27.965Z,2.22
2019-01-19T11:44:58.945Z,2.26
2019-01-19T11:47:29.786Z,2.28
2019-01-19T11:50:00.595Z,2.35
2019-01-19T11:52:31.479Z,2.37
2019-01-19T11:55:02.923Z,2.48
2019-01-19T11:57:33.756Z,2.58
2019-01-19T12:00:05.992Z,2.59
2019-01-19T12:02:37.203Z,2.64
2019-01-19T12:05:09.119Z,2.68
2019-01-19T12:07:39.920Z,2.68
2019-01-19T12:10:15.465Z,2.71
2019-01-19T12:12:46.347Z,2.63
2019-01-19T12:15:17.427Z,2.64
2019-01-19T12:17:48.474Z,2.57
2019-01-19T12:20:41.698Z,2.61
2019-01-19T12:23:12.700Z,2.64
2019-01-19T12:25:43.531Z,2.62
2019-01-19T12:28:14.443Z,2.60
2019-01-19T12:30:45.272Z,2.58
2019-01-19T12:33:16.124Z,2.59
2019-01-19T12:35:46.955Z,2.68
2019-01-19T12:38:17.842Z,2.75
2019-01-19T12:40:48.673Z,2.77
2019-01-19T12:43:25.220Z,2.78
2019-01-19T12:46:00.922Z,2.83
2019-01-19T12:48:31.742Z,2.89
2019-01-19T12:51:05.973Z,2.88
2019-01-19T12:53:36.931Z,2.92
2019-01-19T12:56:07.833Z,2.89
2019-01-19T12:58:38.672Z,2.90
2019-01-19T13:01:09.477Z,2.82
2019-01-19T13:03:50.748Z,2.86
2019-01-19T13:07:00.708Z,2.89
2019-01-19T13:09:46.042Z,2.97
2019-01-19T13:13:01.372Z,3.02
2019-01-19T13:16:55.710Z,3.00
2019-01-19T13:20:31.482Z,2.94
2019-01-19T13:23:45.353Z,2.90
2019-01-19T13:27:05.250Z,2.86
2019-01-19T13:30:36.526Z,2.82
2019-01-19T13:33:21.176Z,2.75
2019-01-19T13:36:45.790Z,2.71
2019-01-19T13:40:06.521Z,2.60
2019-01-19T13:43:40.404Z,2.57
2019-01-19T13:47:15.622Z,2.52
2019-01-19T13:50:29.653Z,2.53
2019-01-19T13:53:55.077Z,2.50
2019-01-19T13:57:13.269Z,2.42
2019-01-19T14:01:02.449Z,2.35
2019-01-19T14:04:04.874Z,2.39
2019-01-19T14:06:59.952Z,2.37
2019-01-19T14:10:38.361Z,2.23
2019-01-19T14:13:58.817Z,2.15
2019-01-19T14:17:28.296Z,2.11
2019-01-19T14:20:18.576Z,2.09
2019-01-19T14:23:43.444Z,1.99
2019-01-19T14:27:09.690Z,1.94
2019-01-19T14:30:42.902Z,1.93
2019-01-19T14:33:56.500Z,1.85
2019-01-19T14:37:16.421Z,1.80
2019-01-19T14:40:21.058Z,1.74
2019-01-19T14:43:54.733Z,1.64
2019-01-19T14:47:04.537Z,1.54
2019-01-19T14:50:23.113Z,1.47
2019-01-19T14:53:43.497Z,1.41
2019-01-19T14:57:17.388Z,1.29
2019-01-19T15:00:25.537Z,1.24
2019-01-19T15:03:53.789Z,1.26
2019-01-19T15:07:24.226Z,1.18
2019-01-19T15:11:06.235Z,1.04
2019-01-19T15:14:39.040Z,0.89
2019-01-19T15:18:05.213Z,0.75
2019-01-19T15:21:58.374Z,0.60
2019-01-19T15:25:03.857Z,0.62
2019-01-19T15:28:15.277Z,0.58
2019-01-19T15:31:42.970Z,0.45
2019-01-19T15:35:24.225Z,0.38
2019-01-19T15:38:38.293Z,0.36
2019-01-19T15:42:22.682Z,0.31
2019-01-19T15:45:49.929Z,0.29
2019-01-19T15:49:14.811Z,0.25
2019-01-19T15:52:46.437Z,0.26
2019-01-19T15:56:06.117Z,0.16
2019-01-19T15:59:35.771Z,0.11
2019-01-19T16:02:49.182Z,0.12
2019-01-19T16:06:31.311Z,0.08
2019-01-19T16:09:56.849Z,0.00
2019-01-19T16:12:48.385Z,-0.05
2019-01-19T16:16:18.235Z,-0.05
2019-01-19T16:19:15.389Z,-0.12
2019-01-19T16:22:32.785Z,-0.17
2019-01-19T16:25:50.456Z,-0.20
2019-01-19T16:29:01.285Z,-0.20
2019-01-19T16:32:21.325Z,-0.28
2019-01-19T16:35:50.910Z,-0.15
2019-01-19T16:39:07.864Z,-0.12
2019-01-19T16:42:40.449Z,-0.20
2019-01-19T16:46:14.372Z,-0.31
2019-01-19T16:49:10.013Z,-0.39
2019-01-19T16:52:25.461Z,-0.31
2019-01-19T16:55:56.372Z,-0.33
2019-01-19T16:59:18.624Z,-0.36
2019-01-19T17:02:47.556Z,-0.50
2019-01-19T17:06:17.353Z,-0.63
2019-01-19T17:09:33.658Z,-0.73
2019-01-19T17:12:44.232Z,-0.76
2019-01-19T17:16:41.335Z,-0.68
2019-01-19T17:19:58.576Z,-0.66
2019-01-19T17:23:18.470Z,-0.69
2019-01-19T17:27:02.200Z,-0.80
2019-01-19T17:30:54.366Z,-0.91
2019-01-19T17:34:01.788Z,-1.00
2019-01-19T17:36:49.762Z,-1.07
2019-01-19T17:40:28.422Z,-0.96
2019-01-19T17:43:23.872Z,-0.82
2019-01-19T17:46:59.816Z,-0.77
2019-01-19T17:50:33.472Z,-0.73
2019-01-19T17:54:00.884Z,-0.91
2019-01-19T17:57:10.565Z,-0.92
2019-01-19T18:00:48.899Z,-0.89
2019-01-19T18:04:06.187Z,-0.85
2019-01-19T18:07:21.460Z,-0.95
2019-01-19T18:11:06.912Z,-0.95
2019-01-19T18:14:28.266Z,-0.98
2019-01-19T18:17:40.507Z,-1.09
2019-01-19T18:21:01.611Z,-1.10
2019-01-19T18:24:56.276Z,-1.16
2019-01-19T18:28:08.699Z,-1.04
2019-01-19T18:31:23.834Z,-1.01
2019-01-19T18:34:44.995Z,-1.12
2019-01-19T18:38:17.137Z,-1.24
2019-01-19T18:41:45.365Z,-1.41
2019-01-19T18:45:03.246Z,-1.43
2019-01-19T18:48:40.225Z,-1.49
2019-01-19T18:52:09.335Z,-1.33
2019-01-19T18:55:53.020Z,-1.39
2019-01-19T18:59:18.924Z,-1.65
2019-01-19T19:02:29.635Z,-1.80
2019-01-19T19:05:30.764Z,-1.86
2019-01-19T19:08:16.231Z,-1.87
2019-01-19T19:11:37.320Z,-1.69
2019-01-19T19:14:59.633Z,-1.76
2019-01-19T19:18:29.550Z,-1.76
2019-01-19T19:21:42.199Z,-1.68
2019-01-19T19:24:48.428Z,-1.58
2019-01-19T19:28:28.380Z,-1.63
2019-01-19T19:32:14.748Z,-1.53
2019-01-19T19:35:51.156Z,-1.45
2019-01-19T19:39:30.955Z,-1.63
2019-01-19T19:42:39.592Z,-1.72
2019-01-19T19:46:12.251Z,-1.80
2019-01-19T19:49:32.804Z,-1.92
2019-01-19T19:52:06.319Z,-2.03
2019-01-19T19:54:38.256Z,-2.03
2019-01-19T19:57:09.178Z,-1.94
2019-01-19T19:59:40.015Z,-1.96
2019-01-19T20:02:10.858Z,-1.97
2019-01-19T20:04:41.748Z,-2.08
2019-01-19T20:07:12.653Z,-2.02
2019-01-19T20:09:43.545Z,-2.04
2019-01-19T20:12:14.453Z,-2.06
2019-01-19T20:14:45.287Z,-2.09
2019-01-19T20:17:16.213Z,-2.14
2019-01-19T20:19:47.219Z,-2.11
2019-01-19T20:22:18.187Z,-2.15
2019-01-19T20:24:49.034Z,-2.17
2019-01-19T20:27:19.971Z,-2.18
2019-01-19T20:29:51.233Z,-2.20
2019-01-19T20:32:22.144Z,-2.34
2019-01-19T20:34:57.010Z,-2.30
2019-01-19T20:37:27.839Z,-2.42
2019-01-19T20:40:00.331Z,-2.31
2019-01-19T20:42:31.202Z,-2.40
2019-01-19T20:45:02.116Z,-2.53
2019-01-19T20:47:32.858Z,-2.57
2019-01-19T20:50:03.751Z,-2.52
2019-01-19T20:52:37.818Z,-2.47
2019-01-19T20:55:09.224Z,-2.51
2019-01-19T20:57:41.799Z,-2.55
2019-01-19T21:00:16.483Z,-2.62
2019-01-19T21:02:47.323Z,-2.71
2019-01-19T21:05:18.188Z,-2.68
2019-01-19T21:07:49.044Z,-2.58
2019-01-19T21:10:19.850Z,-2.59
2019-01-19T21:12:50.669Z,-2.61
2019-01-19T21:15:21.485Z,-2.71
2019-01-19T21:17:55.809Z,-2.83
2019-01-19T21:20:24.987Z,-2.83
2019-01-19T21:22:55.818Z,-2.88
2019-01-19T21:25:26.630Z,-2.86
2019-01-19T21:27:57.449Z,-2.91
2019-01-19T21:30:28.266Z,-3.00
2019-01-19T21:32:59.063Z,-3.05
2019-01-19T21:35:29.831Z,-3.07
2019-01-19T21:38:00.593Z,-3.00
2019-01-19T21:40:31.471Z,-2.99
2019-01-19T21:43:02.274Z,-3.08
2019-01-19T21:45:33.096Z,-3.12
2019-01-19T21:48:03.926Z,-3.06
2019-01-19T21:50:34.702Z,-3.11
2019-01-19T21:53:05.558Z,-3.19
2019-01-19T21:55:36.378Z,-3.24
2019-01-19T21:58:07.402Z,-3.29
2019-01-19T22:00:38.237Z,-3.25
2019-01-19T22:03:09.064Z,-3.20
2019-01-19T22:05:39.978Z,-3.23
2019-01-19T22:08:10.762Z,-3.32
2019-01-19T22:10:46.263Z,-3.40
2019-01-19T22:13:14.562Z,-3.37
2019-01-19T22:15:45.382Z,-3.31
2019-01-19T22:18:16.246Z,-3.19
2019-01-19T22:20:47.006Z,-3.13
2019-01-19T22:23:17.834Z,-3.17
2019-01-19T22:25:48.648Z,-3.21
2019-01-19T22:28:19.498Z,-3.09
2019-01-19T22:30:50.334Z,-3.06
2019-01-19T22:33:21.527Z,-3.06
2019-01-19T22:35:52.352Z,-3.16
2019-01-19T22:38:23.177Z,-3.24
2019-01-19T22:40:53.991Z,-3.15
2019-01-19T22:43:31.475Z,-3.12
2019-01-19T22:46:02.373Z,-3.20
2019-01-19T22:48:33.206Z,-3.18
2019-01-19T22:51:11.029Z,-3.17
2019-01-19T22:53:36.598Z,-3.27
2019-01-19T22:56:07.530Z,-3.28
2019-01-19T22:58:38.342Z,-3.30
2019-01-19T23:01:49.631Z,-3.49
2019-01-19T23:04:20.693Z,-3.47
2019-01-19T23:06:51.497Z,-3.47
2019-01-19T23:09:22.362Z,-3.56
2019-01-19T23:11:53.167Z,-3.63
2019-01-19T23:14:23.991Z,-3.74
2019-01-19T23:16:54.805Z,-3.83
2019-01-19T23:19:25.662Z,-3.82
2019-01-19T23:21:56.468Z,-3.72
2019-01-19T23:24:27.282Z,-3.67
2019-01-19T23:27:05.094Z,-3.62
2019-01-19T23:29:36.404Z,-3.61
2019-01-19T23:32:07.307Z,-3.52
2019-01-19T23:34:38.124Z,-3.61
2019-01-19T23:37:08.888Z,-3.59
2019-01-19T23:39:39.694Z,-3.58
2019-01-19T23:42:10.503Z,-3.57
2019-01-19T23:44:41.274Z,-3.57
2019-01-19T23:47:12.167Z,-3.54
2019-01-19T23:49:43.033Z,-3.56
2019-01-19T23:52:13.876Z,-3.55
2019-01-19T23:54:44.732Z,-3.60
2019-01-19T23:57:15.610Z,-3.67
2019-01-19T23:59:46.454Z,-3.72
